Time;durP1;ratioP1;P1;durP2;ratioP2;P2;SDS_P1;SDS_P2;PMS_P1;PMS_P2;Temp;Humidity;BMP_temperature;BMP_pressure;BME280_temperature;BME280_humidity;BME280_pressure;Samples;Min_cycle;Max_cycle;Signal;HPM_P1;HPM_P2
2023/10/01 00:00:17;;;;;;;10.70;5.00;;;;;;;24.12;44.98;101594.33;107126;1253;25325;-60
2023/10/01 00:02:45;;;;;;;9.10;5.70;;;;;;;24.10;44.64;101594.45;107065;1254;25324;-60
2023/10/01 00:05:12;;;;;;;12.10;5.30;;;;;;;24.06;44.62;101591.33;107154;1250;22546;-60
2023/10/01 00:07:39;;;;;;;7.70;5.30;;;;;;;24.05;44.47;101590.37;107056;1257;25316;-60
2023/10/01 00:10:11;;;;;;;12.80;5.20;;;;;;;24.02;44.08;101586.98;107194;1256;25449;-60
2023/10/01 00:12:38;;;;;;;8.30;5.20;;;;;;;23.99;43.49;101582.39;106862;1257;25532;-60
2023/10/01 00:15:14;;;;;;;9.20;5.20;;;;;;;23.97;43.08;101580.40;107160;1263;22523;-60
2023/10/01 00:17:44;;;;;;;8.50;6.10;;;;;;;23.96;42.89;101577.45;107098;1257;25481;-60
2023/10/01 00:20:22;;;;;;;9.60;5.60;;;;;;;23.95;42.64;101572.33;106950;1257;25363;-61
2023/10/01 00:22:51;;;;;;;7.90;5.00;;;;;;;23.97;42.67;101574.00;107129;1256;25481;-60
2023/10/01 00:25:18;;;;;;;7.40;5.70;;;;;;;23.98;42.63;101569.35;107122;1260;25379;-60
2023/10/01 00:27:45;;;;;;;12.00;6.60;;;;;;;23.99;43.18;101566.63;107187;1256;25505;-60
2023/10/01 00:30:12;;;;;;;8.10;6.00;;;;;;;24.00;44.66;101571.14;106844;1267;25475;-59
2023/10/01 00:32:40;;;;;;;11.20;6.40;;;;;;;24.01;45.28;101569.64;106882;1267;25325;-60
2023/10/01 00:35:07;;;;;;;8.30;6.20;;;;;;;24.01;45.94;101568.25;107095;1254;22657;-60
2023/10/01 00:37:34;;;;;;;7.00;6.30;;;;;;;24.00;46.67;101569.00;106873;1255;26615;-60
2023/10/01 00:40:05;;;;;;;7.50;6.10;;;;;;;24.01;46.55;101570.02;107268;1256;25334;-60
2023/10/01 00:42:34;;;;;;;8.50;6.30;;;;;;;24.02;46.47;101568.70;107081;1263;25359;-60
2023/10/01 00:45:07;;;;;;;7.50;6.30;;;;;;;24.03;46.06;101566.36;106802;1269;25334;-60
2023/10/01 00:47:41;;;;;;;7.80;6.10;;;;;;;24.00;45.71;101566.90;107016;1266;25363;-60
2023/10/01 00:50:19;;;;;;;10.60;6.40;;;;;;;23.99;46.21;101567.12;107101;1263;25334;-60
2023/10/01 00:52:47;;;;;;;13.20;6.80;;;;;;;23.99;46.72;101564.12;107184;1262;22530;-60
2023/10/01 00:55:15;;;;;;;9.60;6.70;;;;;;;23.99;47.45;101567.64;106857;1255;25421;-60
2023/10/01 00:57:43;;;;;;;9.40;6.20;;;;;;;23.99;47.94;101565.20;106907;1267;25369;-60
2023/10/01 01:00:16;;;;;;;8.80;5.90;;;;;;;23.98;47.62;101560.80;107027;1266;25362;-60
2023/10/01 01:05:37;;;;;;;8.20;5.90;;;;;;;23.99;47.12;101558.13;107052;1254;25344;-60
2023/10/01 01:08:07;;;;;;;7.90;5.90;;;;;;;23.97;46.70;101563.19;106863;1266;25353;-59
2023/10/01 01:10:40;;;;;;;6.80;6.20;;;;;;;24.01;47.06;101563.81;107085;1260;22839;-60
2023/10/01 01:13:08;;;;;;;8.90;6.20;;;;;;;23.99;47.37;101564.48;106719;1275;25337;-60
2023/10/01 01:15:35;;;;;;;10.70;6.30;;;;;;;23.98;47.50;101564.86;107181;1255;25362;-59
2023/10/01 01:18:07;;;;;;;11.00;6.60;;;;;;;23.98;47.86;101560.63;107135;1260;25510;-59
2023/10/01 01:20:43;;;;;;;7.40;6.50;;;;;;;23.94;48.36;101562.31;107129;1261;25362;-60
2023/10/01 01:23:18;;;;;;;10.60;6.40;;;;;;;23.91;48.99;101562.52;106866;1260;25411;-59
2023/10/01 01:25:46;;;;;;;7.60;6.10;;;;;;;23.89;49.27;101558.40;107115;1253;26640;-60
2023/10/01 01:28:12;;;;;;;7.00;6.30;;;;;;;23.89;48.63;101558.42;106846;1251;22855;-60
2023/10/01 01:30:46;;;;;;;7.80;6.30;;;;;;;23.88;47.21;101559.39;107060;1256;25471;-60
2023/10/01 01:33:13;;;;;;;9.00;6.30;;;;;;;23.91;46.02;101559.32;107089;1257;25359;-60
2023/10/01 01:35:42;;;;;;;8.20;6.10;;;;;;;23.94;45.60;101555.61;107111;1254;25325;-60
2023/10/01 01:38:09;;;;;;;8.20;5.70;;;;;;;23.95;45.52;101563.83;107126;1255;24221;-60
2023/10/01 01:40:40;;;;;;;10.00;6.40;;;;;;;23.96;46.02;101559.19;106844;1263;25344;-60
2023/10/01 01:43:16;;;;;;;12.50;6.80;;;;;;;23.97;47.86;101560.33;106859;1266;25410;-60
2023/10/01 01:45:47;;;;;;;8.70;6.80;;;;;;;23.97;48.45;101562.48;107052;1257;25331;-60
2023/10/01 01:48:34;;;;;;;10.50;6.70;;;;;;;23.95;48.87;101560.15;107160;1254;25452;-60
2023/10/01 01:51:01;;;;;;;14.00;7.20;;;;;;;23.92;48.72;101560.66;107078;1253;24193;-60
2023/10/01 01:53:35;;;;;;;7.50;6.40;;;;;;;23.91;48.68;101562.72;106832;1259;25353;-59
2023/10/01 01:56:11;;;;;;;10.10;6.70;;;;;;;23.88;48.66;101563.98;107114;1250;25353;-59
2023/10/01 01:58:40;;;;;;;12.80;7.40;;;;;;;23.84;48.67;101561.20;107089;1254;25415;-60
2023/10/01 02:01:08;;;;;;;8.60;6.80;;;;;;;23.80;48.60;101559.55;107063;1263;22538;-60
2023/10/01 02:03:39;;;;;;;9.60;8.00;;;;;;;23.77;48.65;101561.83;106971;1266;22517;-60
2023/10/01 02:06:07;;;;;;;14.60;8.30;;;;;;;23.77;48.27;101555.13;107202;1254;25343;-59
2023/10/01 02:08:35;;;;;;;15.70;8.40;;;;;;;23.74;47.61;101556.04;107142;1254;24205;-60
2023/10/01 02:11:09;;;;;;;11.00;8.70;;;;;;;23.68;47.37;101556.55;107026;1254;25362;-59
2023/10/01 02:13:45;;;;;;;12.80;8.40;;;;;;;23.64;47.12;101554.56;107137;1256;25233;-62
2023/10/01 02:16:34;;;;;;;12.10;8.30;;;;;;;23.60;47.35;101553.70;107165;1258;25335;-60
2023/10/01 02:19:11;;;;;;;14.70;8.80;;;;;;;23.56;47.35;101550.80;107070;1254;24186;-60
2023/10/01 02:22:00;;;;;;;11.20;8.10;;;;;;;23.49;46.95;101553.05;107096;1257;25363;-60
2023/10/01 02:27:09;;;;;;;13.30;8.10;;;;;;;23.42;46.99;101550.48;106936;1258;25427;-60
2023/10/01 02:29:45;;;;;;;15.90;7.90;;;;;;;23.38;46.99;101549.30;106857;1269;24424;-60
2023/10/01 02:32:14;;;;;;;9.40;7.90;;;;;;;23.34;46.76;101550.77;106987;1254;25347;-60
2023/10/01 02:34:43;;;;;;;15.60;8.40;;;;;;;23.29;46.42;101549.46;107176;1256;22642;-60
2023/10/01 02:37:10;;;;;;;13.00;8.50;;;;;;;23.25;46.15;101549.20;106792;1259;22814;-61
2023/10/01 02:39:40;;;;;;;11.00;8.20;;;;;;;23.26;46.34;101547.56;107065;1256;24234;-60
2023/10/01 02:44:34;;;;;;;13.80;8.50;;;;;;;23.23;46.04;101551.44;107176;1263;25483;-60
2023/10/01 02:47:08;;;;;;;12.80;8.00;;;;;;;23.21;46.02;101548.53;107189;1260;25230;-61
2023/10/01 02:49:47;;;;;;;13.40;7.60;;;;;;;23.21;45.90;101549.61;106828;1267;25315;-60
2023/10/01 02:52:19;;;;;;;10.50;8.20;;;;;;;23.19;45.93;101547.10;107140;1260;25334;-60
2023/10/01 02:54:54;;;;;;;9.80;7.90;;;;;;;23.18;46.45;101550.01;107125;1254;25481;-61
2023/10/01 02:57:24;;;;;;;11.20;7.70;;;;;;;23.17;46.71;101545.98;106326;1254;1002901;-59
2023/10/01 03:02:49;;;;;;;11.60;8.10;;;;;;;23.16;47.03;101547.95;107126;1256;25353;-60
2023/10/01 03:05:26;;;;;;;11.80;7.80;;;;;;;23.13;46.63;101544.27;107187;1263;25328;-60
2023/10/01 03:08:03;;;;;;;9.10;8.00;;;;;;;23.13;46.40;101539.70;106960;1259;24237;-61
2023/10/01 03:10:31;;;;;;;10.10;7.80;;;;;;;23.13;46.47;101540.23;107098;1263;22514;-61
2023/10/01 03:13:00;;;;;;;12.60;8.00;;;;;;;23.10;46.03;101538.62;107138;1263;25362;-60
2023/10/01 03:15:28;;;;;;;10.90;7.90;;;;;;;23.10;46.03;101538.45;107060;1254;25335;-61
2023/10/01 03:18:06;;;;;;;15.20;8.70;;;;;;;23.10;46.41;101535.80;107204;1255;25344;-61
2023/10/01 03:26:04;;;;;;;10.40;8.30;;;;;;;23.08;47.24;101527.45;106920;1267;23383;-61
2023/10/01 03:31:19;;;;;;;12.00;8.60;;;;;;;23.05;47.22;101529.22;107121;1263;25368;-60
2023/10/01 03:33:47;;;;;;;9.30;7.50;;;;;;;23.05;47.52;101529.23;106860;1259;25359;-60
2023/10/01 03:36:24;;;;;;;15.00;8.00;;;;;;;23.04;47.95;101529.41;107202;1262;25331;-60
2023/10/01 03:38:59;;;;;;;12.50;7.90;;;;;;;23.03;47.53;101528.11;106887;1259;25362;-60
2023/10/01 03:41:27;;;;;;;13.40;7.90;;;;;;;22.98;47.52;101530.02;106844;1274;25334;-60
2023/10/01 03:44:08;;;;;;;13.20;7.90;;;;;;;22.98;47.39;101531.63;106976;1266;22527;-60
2023/10/01 03:46:42;;;;;;;14.40;8.50;;;;;;;22.97;47.56;101531.84;107227;1254;25334;-61
2023/10/01 03:51:58;;;;;;;15.00;8.40;;;;;;;22.92;47.58;101533.73;107113;1263;22523;-60
2023/10/01 03:54:28;;;;;;;10.50;8.90;;;;;;;22.91;47.79;101534.66;107137;1254;25370;-59
2023/10/01 03:56:58;;;;;;;14.00;8.60;;;;;;;22.90;47.75;101535.43;106940;1266;24362;-60
2023/10/01 03:59:27;;;;;;;16.60;9.20;;;;;;;22.87;47.74;101534.58;107072;1253;25521;-60
2023/10/01 04:01:58;;;;;;;9.10;8.20;;;;;;;22.86;48.00;101538.33;107133;1262;22598;-60
2023/10/01 04:04:32;;;;;;;16.40;9.10;;;;;;;22.87;48.35;101537.03;107151;1257;23883;-60
2023/10/01 04:07:00;;;;;;;15.50;8.90;;;;;;;22.86;48.51;101537.80;106922;1259;25455;-60
2023/10/01 04:09:28;;;;;;;13.90;9.20;;;;;;;22.86;48.56;101538.19;107081;1257;25522;-61
2023/10/01 04:12:18;;;;;;;12.70;9.20;;;;;;;22.84;48.55;101543.94;107060;1256;24205;-59
2023/10/01 04:14:48;;;;;;;15.60;10.10;;;;;;;22.84;48.69;101550.87;107121;1256;25474;-60
2023/10/01 04:17:19;;;;;;;14.60;9.20;;;;;;;22.84;48.75;101549.98;107069;1260;25361;-60
2023/10/01 04:19:49;;;;;;;14.70;9.40;;;;;;;22.82;48.55;101555.78;107139;1257;25330;-60
2023/10/01 04:22:21;;;;;;;14.40;9.10;;;;;;;22.82;48.42;101564.62;107098;1254;25334;-60
2023/10/01 04:25:03;;;;;;;16.00;9.70;;;;;;;22.82;48.48;101562.29;107105;1254;25542;-59
2023/10/01 04:27:34;;;;;;;15.30;8.80;;;;;;;22.81;48.48;101559.89;107108;1254;25407;-60
2023/10/01 04:30:07;;;;;;;;;;;;;;;22.79;47.93;101561.74;107139;1254;25327;-60
2023/10/01 04:32:36;;;;;;;16.20;9.60;;;;;;;22.78;47.70;101561.84;107189;1254;25359;-60
2023/10/01 04:35:17;;;;;;;15.60;10.00;;;;;;;22.76;47.54;101562.88;106962;1260;23728;-60
2023/10/01 04:37:51;;;;;;;15.80;9.50;;;;;;;22.73;47.46;101568.48;107095;1256;25309;-60
2023/10/01 04:40:39;;;;;;;13.30;8.80;;;;;;;22.70;47.17;101566.43;107130;1254;25334;-60
2023/10/01 04:43:10;;;;;;;14.80;9.10;;;;;;;22.66;46.63;101567.15;107048;1254;25334;-60
2023/10/01 04:45:40;;;;;;;9.90;8.60;;;;;;;22.61;45.95;101572.70;107173;1269;25325;-61
2023/10/01 04:48:16;;;;;;;12.40;8.90;;;;;;;22.58;45.74;101572.37;106852;1260;25317;-60
2023/10/01 04:50:45;;;;;;;13.10;9.60;;;;;;;22.57;45.99;101573.46;107041;1257;25335;-60
2023/10/01 04:53:13;;;;;;;13.10;9.20;;;;;;;22.56;45.83;101573.17;107078;1267;24308;-61
2023/10/01 04:55:41;;;;;;;10.20;8.40;;;;;;;22.53;45.19;101571.90;106894;1256;25362;-60
2023/10/01 04:58:12;;;;;;;9.00;8.10;;;;;;;22.51;45.53;101574.71;107124;1251;22519;-60
2023/10/01 05:00:44;;;;;;;12.80;8.90;;;;;;;22.49;45.28;101575.33;107209;1251;25277;-60
2023/10/01 05:03:15;;;;;;;12.10;8.90;;;;;;;22.49;45.02;101575.53;107094;1255;25411;-61
2023/10/01 05:05:43;;;;;;;13.90;9.00;;;;;;;22.47;44.84;101576.52;107072;1263;25312;-61
2023/10/01 05:08:12;;;;;;;15.40;10.10;;;;;;;22.44;44.87;101581.10;107053;1255;25414;-60
2023/10/01 05:10:52;;;;;;;15.70;9.70;;;;;;;22.41;44.90;101579.73;107156;1254;25375;-61
2023/10/01 05:13:20;;;;;;;13.00;9.90;;;;;;;22.38;45.16;101584.86;107068;1256;23277;-61
2023/10/01 05:15:56;;;;;;;12.10;9.40;;;;;;;22.37;45.10;101589.31;107056;1254;25334;-61
2023/10/01 05:18:26;;;;;;;13.80;10.00;;;;;;;22.35;45.37;101592.40;107023;1254;22523;-61
2023/10/01 05:20:58;;;;;;;12.70;9.40;;;;;;;22.34;45.52;101589.84;106940;1274;24453;-60
2023/10/01 05:23:26;;;;;;;13.20;9.90;;;;;;;22.33;45.51;101590.10;107020;1259;25471;-60
2023/10/01 05:25:56;;;;;;;11.90;9.60;;;;;;;22.31;45.39;101590.00;107102;1261;24356;-60
2023/10/01 05:28:23;;;;;;;13.30;9.20;;;;;;;22.29;45.33;101587.67;106843;1259;25334;-60
2023/10/01 05:30:57;;;;;;;10.60;9.50;;;;;;;22.28;45.76;101589.84;107199;1256;24279;-59
2023/10/01 05:33:25;;;;;;;11.90;9.70;;;;;;;22.27;45.82;101589.52;107097;1254;25340;-60
2023/10/01 05:35:57;;;;;;;12.20;9.10;;;;;;;22.26;45.89;101588.38;107193;1254;25325;-60
2023/10/01 05:38:26;;;;;;;13.00;9.40;;;;;;;22.26;45.70;101589.08;105389;1260;1003203;-60
2023/10/01 05:40:54;;;;;;;14.60;9.20;;;;;;;22.26;45.58;101590.48;106821;1274;22524;-60
2023/10/01 05:43:27;;;;;;;15.00;9.40;;;;;;;22.27;45.32;101590.44;106331;1257;1003512;-60
2023/10/01 05:46:01;;;;;;;21.10;9.80;;;;;;;22.25;45.04;101591.95;106883;1259;25362;-60
2023/10/01 05:48:29;;;;;;;10.80;9.50;;;;;;;22.24;45.05;101589.91;106827;1260;25334;-60
2023/10/01 05:50:58;;;;;;;12.50;8.30;;;;;;;22.23;44.93;101591.05;106922;1266;25335;-60
2023/10/01 05:53:26;;;;;;;12.60;9.20;;;;;;;22.23;44.69;101592.61;107152;1254;25484;-60
2023/10/01 05:55:54;;;;;;;14.40;9.10;;;;;;;22.24;44.69;101594.70;107188;1254;22523;-60
2023/10/01 05:58:21;;;;;;;14.70;8.80;;;;;;;22.25;44.66;101596.05;107065;1257;25522;-61
2023/10/01 06:01:05;;;;;;;12.40;9.00;;;;;;;22.26;44.65;101599.35;107090;1257;25404;-60
2023/10/01 06:03:33;;;;;;;14.40;9.30;;;;;;;22.28;44.61;101605.04;106884;1266;23870;-61
2023/10/01 06:06:10;;;;;;;12.10;9.00;;;;;;;22.30;44.55;101605.10;107139;1254;25709;-60
2023/10/01 06:08:45;;;;;;;11.30;8.60;;;;;;;22.33;44.51;101606.90;106992;1266;25362;-59
2023/10/01 06:11:15;;;;;;;14.80;9.10;;;;;;;22.34;43.77;101606.98;107240;1254;25337;-60
2023/10/01 06:13:49;;;;;;;18.20;9.10;;;;;;;22.35;43.61;101612.05;107114;1262;22523;-60
2023/10/01 06:16:23;;;;;;;10.40;8.40;;;;;;;22.38;43.51;101613.29;107174;1257;25506;-60
2023/10/01 06:18:58;;;;;;;16.20;8.70;;;;;;;22.42;43.68;101615.00;107122;1257;25378;-60
2023/10/01 06:21:34;;;;;;;16.30;9.00;;;;;;;22.46;43.42;101615.99;106910;1259;25316;-60
2023/10/01 06:24:07;;;;;;;13.10;9.00;;;;;;;22.49;43.33;101616.35;107171;1266;25359;-60
2023/10/01 06:26:36;;;;;;;12.60;8.20;;;;;;;22.52;43.58;101617.05;106894;1273;24424;-60
2023/10/01 06:29:05;;;;;;;15.60;8.70;;;;;;;22.55;43.07;101614.94;107050;1254;25324;-60
2023/10/01 06:31:48;;;;;;;11.20;9.70;;;;;;;22.56;42.90;101617.20;107083;1256;22518;-62
2023/10/01 06:34:21;;;;;;;10.00;8.30;;;;;;;22.59;42.97;101618.27;107192;1270;25468;-61
2023/10/01 06:36:58;;;;;;;11.00;8.60;;;;;;;22.65;43.02;101617.26;107056;1263;25331;-60
2023/10/01 06:39:30;;;;;;;12.70;8.90;;;;;;;22.70;42.80;101616.42;107120;1254;25449;-59
2023/10/01 06:42:18;;;;;;;13.90;9.10;;;;;;;22.76;43.13;101619.45;107098;1263;24386;-60
2023/10/01 06:44:45;;;;;;;15.10;8.80;;;;;;;22.83;42.85;101620.41;107099;1260;25334;-60
2023/10/01 06:47:15;;;;;;;12.10;8.20;;;;;;;22.88;42.40;101622.42;107159;1263;25329;-60
2023/10/01 06:49:57;;;;;;;11.40;8.60;;;;;;;22.93;42.21;101620.37;107154;1263;25325;-60
2023/10/01 06:52:25;;;;;;;;;;;;;;;22.98;42.09;101621.99;107227;1263;25358;-60
2023/10/01 06:54:52;;;;;;;13.30;8.00;;;;;;;23.04;42.24;101623.76;107183;1263;24256;-61
2023/10/01 06:57:21;;;;;;;12.30;9.00;;;;;;;23.10;42.21;101623.60;107251;1254;22524;-59
2023/10/01 06:59:49;;;;;;;15.20;9.30;;;;;;;23.15;42.36;101623.64;106912;1269;25519;-60
2023/10/01 07:02:16;;;;;;;14.20;9.30;;;;;;;23.20;42.39;101628.98;107164;1261;25414;-60
2023/10/01 07:04:56;;;;;;;12.70;8.50;;;;;;;23.25;42.46;101630.41;106823;1272;25471;-60
2023/10/01 07:07:40;;;;;;;12.20;8.90;;;;;;;23.31;41.56;101632.73;107127;1254;25346;-60
2023/10/01 07:10:10;;;;;;;11.30;8.30;;;;;;;23.35;41.59;101633.04;107018;1265;25411;-60
2023/10/01 07:12:53;;;;;;;11.90;8.70;;;;;;;23.39;41.74;101634.39;107180;1256;25363;-59
2023/10/01 07:15:20;;;;;;;14.50;8.90;;;;;;;23.44;41.09;101635.88;106845;1260;23385;-60
2023/10/01 07:17:48;;;;;;;14.20;9.20;;;;;;;23.47;41.48;101636.94;107127;1256;25397;-60
2023/10/01 07:20:24;;;;;;;10.80;8.60;;;;;;;23.52;41.68;101638.02;107159;1256;22527;-60
2023/10/01 07:22:51;;;;;;;11.50;8.20;;;;;;;23.59;41.34;101639.70;107090;1264;25331;-59
2023/10/01 07:25:42;;;;;;;10.80;8.60;;;;;;;23.64;40.97;101639.37;107074;1256;25359;-60
2023/10/01 07:28:18;;;;;;;13.10;8.60;;;;;;;23.70;41.51;101642.73;107088;1256;22524;-60
2023/10/01 07:30:46;;;;;;;12.20;7.80;;;;;;;23.74;41.16;101638.40;107148;1257;25347;-60
2023/10/01 07:33:14;;;;;;;11.50;8.60;;;;;;;23.78;41.39;101639.40;107173;1263;22534;-61
2023/10/01 07:35:44;;;;;;;9.50;8.50;;;;;;;23.81;41.61;101637.56;107066;1257;25322;-60
2023/10/01 07:38:13;;;;;;;11.50;8.30;;;;;;;23.88;41.43;101637.70;106739;1265;25334;-60
2023/10/01 07:43:40;;;;;;;13.00;9.20;;;;;;;23.98;41.12;101634.36;106670;1263;25370;-60
2023/10/01 07:46:07;;;;;;;11.30;8.90;;;;;;;24.00;41.27;101638.30;106691;1270;25335;-60
2023/10/01 07:48:38;;;;;;;10.40;8.90;;;;;;;24.04;41.48;101638.59;106631;1263;25334;-60
2023/10/01 07:51:22;;;;;;;14.80;8.80;;;;;;;24.09;41.94;101641.66;106474;1275;25635;-60
2023/10/01 07:53:52;;;;;;;13.60;8.70;;;;;;;24.17;41.66;101637.40;106669;1273;25340;-60
2023/10/01 07:56:21;;;;;;;9.50;8.10;;;;;;;24.23;41.42;101639.46;106720;1266;25504;-60
2023/10/01 07:58:56;;;;;;;11.70;9.10;;;;;;;24.31;41.30;101635.67;106327;1268;22642;-60
2023/10/01 08:01:36;;;;;;;18.20;8.80;;;;;;;24.37;41.36;101636.71;106719;1267;25293;-60
2023/10/01 08:04:50;;;;;;;13.40;8.90;;;;;;;24.39;41.28;101637.64;106621;1261;25689;-59
2023/10/01 08:07:15;;;;;;;23.70;11.10;;;;;;;24.45;41.40;101636.48;106548;1263;25434;-61
2023/10/01 08:09:46;;;;;;;14.70;9.50;;;;;;;24.51;41.78;101635.42;106767;1263;25322;-60
2023/10/01 08:12:14;;;;;;;13.20;9.40;;;;;;;24.52;41.92;101640.11;106749;1262;25372;-61
2023/10/01 08:14:41;;;;;;;15.50;9.10;;;;;;;24.53;41.77;101640.55;106754;1262;25480;-60
2023/10/01 08:17:08;;;;;;;13.40;8.50;;;;;;;24.54;42.42;101642.80;106521;1272;25366;-61
2023/10/01 08:19:44;;;;;;;14.40;8.90;;;;;;;24.55;43.16;101648.05;106621;1260;25414;-61
2023/10/01 08:22:14;;;;;;;11.00;8.90;;;;;;;24.55;43.00;101647.39;107137;1251;25452;-61
2023/10/01 08:24:49;;;;;;;11.50;9.00;;;;;;;24.53;42.76;101649.48;107120;1257;22639;-61
2023/10/01 08:27:32;;;;;;;11.30;9.10;;;;;;;24.55;42.86;101651.81;107083;1261;25411;-60
2023/10/01 08:30:17;;;;;;;13.70;9.00;;;;;;;24.54;42.79;101646.16;106883;1258;25360;-60
2023/10/01 08:33:11;;;;;;;12.50;9.40;;;;;;;24.58;43.00;101649.65;106892;1272;25452;-60
2023/10/01 08:35:37;;;;;;;10.30;8.40;;;;;;;24.66;42.85;101648.55;107068;1257;25359;-61
2023/10/01 08:38:15;;;;;;;14.30;7.90;;;;;;;24.71;42.50;101649.10;106868;1256;25331;-60
2023/10/01 08:40:42;;;;;;;13.20;8.90;;;;;;;24.78;42.41;101649.59;107221;1260;25334;-60
2023/10/01 08:43:11;;;;;;;12.70;9.20;;;;;;;24.83;42.69;101646.37;107205;1265;25446;-62
2023/10/01 08:45:43;;;;;;;11.70;8.80;;;;;;;24.89;42.53;101645.30;106917;1267;22517;-61
2023/10/01 08:48:17;;;;;;;13.40;8.90;;;;;;;24.92;42.11;101647.35;107168;1266;25353;-61
2023/10/01 08:50:45;;;;;;;12.90;8.70;;;;;;;24.97;42.09;101650.76;107084;1266;25382;-61
2023/10/01 08:53:12;;;;;;;10.60;8.20;;;;;;;25.00;41.80;101654.44;107108;1257;25474;-60
2023/10/01 09:00:51;;;;;;;16.20;8.80;;;;;;;25.09;41.48;101650.79;107088;1250;22523;-61
2023/10/01 09:03:34;;;;;;;12.50;9.10;;;;;;;25.10;41.48;101654.30;107147;1260;25290;-61
2023/10/01 09:06:58;;;;;;;11.10;9.10;;;;;;;25.10;41.42;101657.49;107085;1260;25353;-60
2023/10/01 09:08:56;;;;;;;9.40;8.40;;;;;;;25.10;41.60;101658.95;107053;1267;25350;-61
2023/10/01 09:11:35;;;;;;;10.60;8.00;;;;;;;25.12;41.57;101655.44;107187;1257;25340;-61
2023/10/01 09:14:17;;;;;;;10.20;8.30;;;;;;;25.14;41.79;101659.86;107182;1256;22639;-62
2023/10/01 09:16:45;;;;;;;11.80;8.20;;;;;;;25.18;42.10;101656.59;107108;1254;25369;-61
2023/10/01 09:19:34;;;;;;;13.70;8.60;;;;;;;25.25;41.98;101656.46;106889;1266;25333;-61
2023/10/01 09:22:07;;;;;;;16.60;9.40;;;;;;;25.33;42.15;101656.23;107059;1266;25366;-61
2023/10/01 09:24:38;;;;;;;12.90;9.30;;;;;;;25.39;42.52;101655.48;106898;1270;25349;-60
2023/10/01 09:27:18;;;;;;;11.20;9.20;;;;;;;25.44;42.43;101659.38;107091;1263;22546;-61
2023/10/01 09:29:48;;;;;;;12.40;8.50;;;;;;;25.51;42.48;101653.92;106698;1274;25331;-61
2023/10/01 09:32:15;;;;;;;9.80;8.50;;;;;;;25.57;42.30;101658.87;107154;1273;24484;-61
2023/10/01 09:34:53;;;;;;;10.90;8.50;;;;;;;25.63;42.35;101660.73;107162;1257;25411;-60
2023/10/01 09:37:42;;;;;;;14.70;9.30;;;;;;;25.70;42.41;101659.48;107109;1271;25405;-59
2023/10/01 09:42:57;;;;;;;9.50;8.50;;;;;;;25.85;41.61;101655.77;107167;1259;25325;-60
2023/10/01 09:45:41;;;;;;;8.60;7.70;;;;;;;25.90;40.92;101656.48;107058;1267;25407;-61
2023/10/01 09:48:23;;;;;;;14.80;8.50;;;;;;;25.96;40.19;101652.87;107179;1267;25372;-60
2023/10/01 09:50:51;;;;;;;13.30;8.40;;;;;;;26.02;39.31;101652.59;107173;1260;25362;-60
2023/10/01 09:53:21;;;;;;;9.50;7.90;;;;;;;26.06;38.74;101650.35;106834;1267;25379;-60
2023/10/01 09:55:49;;;;;;;14.90;8.80;;;;;;;26.15;38.36;101654.20;107051;1264;22602;-61
2023/10/01 09:58:26;;;;;;;16.20;7.60;;;;;;;26.21;38.74;101651.23;107013;1267;25414;-60
2023/10/01 10:00:59;;;;;;;14.30;8.10;;;;;;;26.28;39.09;101651.60;107081;1263;25366;-61
2023/10/01 10:03:42;;;;;;;11.60;8.10;;;;;;;26.34;38.17;101650.41;106961;1267;25317;-61
2023/10/01 10:06:10;;;;;;;11.20;7.90;;;;;;;26.40;37.38;101650.33;107112;1272;25398;-60
2023/10/01 10:08:38;;;;;;;12.40;8.20;;;;;;;26.47;36.82;101646.95;107102;1257;25338;-61
2023/10/01 10:11:21;;;;;;;15.80;8.50;;;;;;;26.57;36.62;101642.13;107198;1257;22527;-60
2023/10/01 10:13:50;;;;;;;12.00;8.00;;;;;;;26.65;36.21;101642.58;107147;1263;24453;-61
2023/10/01 10:16:32;;;;;;;13.10;8.60;;;;;;;26.74;35.77;101639.66;107119;1256;25366;-61
2023/10/01 10:19:13;;;;;;;13.20;7.90;;;;;;;26.80;35.87;101644.17;107117;1256;25404;-60
2023/10/01 10:24:46;;;;;;;10.90;7.70;;;;;;;26.94;36.15;101642.20;107082;1260;25325;-60
2023/10/01 10:27:17;;;;;;;10.70;8.40;;;;;;;26.99;36.24;101639.80;107133;1257;25353;-61
2023/10/01 10:29:47;;;;;;;11.40;8.60;;;;;;;27.05;36.49;101638.86;107075;1264;25333;-61
2023/10/01 10:32:14;;;;;;;10.40;7.70;;;;;;;27.08;36.55;101637.73;107104;1266;25372;-60
2023/10/01 10:35:03;;;;;;;13.20;8.40;;;;;;;27.11;36.45;101636.92;107095;1255;23258;-61
2023/10/01 10:37:37;;;;;;;13.20;8.70;;;;;;;27.16;36.63;101634.59;107134;1257;25404;-60
2023/10/01 10:43:04;;;;;;;12.80;8.00;;;;;;;27.23;36.29;101628.85;107025;1267;25336;-61
2023/10/01 10:45:42;;;;;;;14.20;8.40;;;;;;;27.24;36.68;101624.65;107065;1264;25905;-60
2023/10/01 10:48:10;;;;;;;13.50;8.30;;;;;;;27.27;36.69;101623.02;106913;1260;23307;-60
2023/10/01 10:50:56;;;;;;;11.70;8.50;;;;;;;27.32;36.73;101620.20;107189;1263;24682;-61
2023/10/01 10:53:40;;;;;;;17.10;8.20;;;;;;;27.37;36.65;101615.13;107234;1264;25347;-61
2023/10/01 10:56:08;;;;;;;9.50;7.80;;;;;;;27.41;36.31;101611.09;107079;1263;22528;-60
2023/10/01 10:58:53;;;;;;;14.10;7.90;;;;;;;27.46;35.87;101613.42;107122;1257;22531;-62
2023/10/01 11:01:20;;;;;;;10.40;7.90;;;;;;;27.51;35.99;101613.14;106922;1267;25355;-61
2023/10/01 11:03:48;;;;;;;15.30;8.10;;;;;;;27.57;35.74;101611.30;107032;1264;25362;-61
2023/10/01 11:06:42;;;;;;;11.00;7.90;;;;;;;27.62;35.11;101610.53;106994;1269;25363;-61
2023/10/01 11:09:22;;;;;;;10.80;7.70;;;;;;;27.68;34.76;101603.45;107083;1261;22526;-61
2023/10/01 11:12:05;;;;;;;11.40;7.80;;;;;;;27.75;34.85;101605.20;107064;1260;25268;-61
2023/10/01 11:14:34;;;;;;;10.90;7.00;;;;;;;27.82;34.45;101600.29;107108;1257;25420;-61
2023/10/01 11:17:03;;;;;;;9.40;7.20;;;;;;;27.91;33.94;101603.73;107179;1257;25328;-61
2023/10/01 11:19:35;;;;;;;10.50;7.50;;;;;;;27.97;33.57;101597.30;106913;1267;24246;-61
2023/10/01 11:22:07;;;;;;;13.00;7.50;;;;;;;28.02;33.92;101600.64;106864;1263;25372;-61
2023/10/01 11:24:40;;;;;;;9.90;7.80;;;;;;;28.02;34.44;101596.36;107218;1265;25352;-60
2023/10/01 11:27:43;;;;;;;11.30;7.40;;;;;;;28.00;34.57;101591.73;106387;1260;1016167;-60
2023/10/01 11:30:12;;;;;;;12.40;7.80;;;;;;;27.99;33.95;101586.12;107227;1251;25327;-60
2023/10/01 11:33:04;;;;;;;18.40;8.50;;;;;;;27.99;33.37;101584.52;107124;1253;23169;-60
2023/10/01 11:35:32;;;;;;;;;;;;;;;27.99;32.43;101580.27;107151;1254;25330;-60
2023/10/01 11:38:19;;;;;;;11.40;7.20;;;;;;;27.99;31.52;101579.73;107003;1256;414465;-60
2023/10/01 11:41:06;;;;;;;15.30;7.70;;;;;;;27.98;31.36;101577.79;107070;1254;22688;-59
2023/10/01 11:43:39;;;;;;;10.90;7.10;;;;;;;27.99;31.44;101577.55;107301;1260;22530;-61
2023/10/01 11:46:19;;;;;;;11.80;7.30;;;;;;;27.95;31.64;101580.90;107249;1257;25405;-60
2023/10/01 11:49:04;;;;;;;10.10;7.60;;;;;;;27.96;31.76;101575.66;106998;1260;24156;-60
2023/10/01 11:51:43;;;;;;;13.50;8.30;;;;;;;27.95;31.55;101571.09;107043;1251;25329;-60
2023/10/01 11:54:17;;;;;;;9.50;7.50;;;;;;;27.96;31.33;101567.30;107125;1270;22538;-61
2023/10/01 11:57:08;;;;;;;11.40;7.60;;;;;;;27.97;31.15;101565.10;107015;1274;25449;-61
2023/10/01 11:59:42;;;;;;;11.30;7.30;;;;;;;27.96;30.90;101559.41;107067;1254;25434;-60
2023/10/01 12:02:18;;;;;;;14.30;7.70;;;;;;;27.97;30.98;101555.78;107105;1254;25526;-60
2023/10/01 12:05:00;;;;;;;10.70;8.00;;;;;;;27.97;31.18;101557.02;107206;1254;25770;-59
2023/10/01 12:07:43;;;;;;;10.50;7.60;;;;;;;27.97;31.56;101553.11;107114;1255;25353;-59
2023/10/01 12:12:58;;;;;;;12.70;7.50;;;;;;;27.96;32.04;101545.90;106825;1274;25484;-59
2023/10/01 12:15:34;;;;;;;13.00;7.90;;;;;;;27.95;32.50;101541.83;107170;1251;25287;-59
2023/10/01 12:18:08;;;;;;;25.00;8.00;;;;;;;27.95;34.08;101541.10;107177;1257;25402;-59
2023/10/01 12:20:39;;;;;;;10.10;7.90;;;;;;;27.93;35.21;101536.45;107007;1257;25328;-59